Terminal Aerodrome Forecast
Issued by NWS

Home | Current Version | Previous Version | Text Only | Print | Product List | Glossary Off
Versions: 1 2 3 4 5 6 7 8 9 10 11 12 13 14 15 16 17 18 19 20 21 22 23 24 25 26 27 28 29 30 31 32 33

000
FTUS43 KLOT 271957 AAB
TAFORD
TAF AMD
KORD 271957Z 2720/2824 29013G20KT P6SM VCSH SCT050 BKN060
      TEMPO 2720/2721 6SM -SHRA BKN035
     FM272300 05005KT P6SM FEW040
     FM280100 VRB03KT P6SM SKC
     FM281500 15012KT P6SM FEW050
     FM282100 11010KT P6SM SKC=

USA.gov is the U.S. government's official web portal to all federal, state and local government web resources and services.